createdAt,value
2019-01-25T00:01:50.845Z,24.73
2019-01-25T00:04:19.038Z,23.73
2019-01-25T00:06:47.262Z,24.10
2019-01-25T00:09:15.537Z,21.97
2019-01-25T00:11:43.822Z,23.40
2019-01-25T00:14:12.021Z,23.03
2019-01-25T00:16:40.242Z,21.50
2019-01-25T00:19:08.518Z,24.00
2019-01-25T00:21:36.810Z,21.50
2019-01-25T00:24:05.178Z,22.10
2019-01-25T00:26:33.443Z,22.70
2019-01-25T00:29:01.743Z,20.33
2019-01-25T00:31:30.005Z,20.20
2019-01-25T00:33:58.297Z,21.70
2019-01-25T00:36:26.535Z,20.30
2019-01-25T00:38:54.881Z,18.77
2019-01-25T00:41:23.141Z,19.17
2019-01-25T00:43:51.377Z,18.87
2019-01-25T00:46:19.638Z,17.70
2019-01-25T00:48:47.857Z,17.77
2019-01-25T00:51:16.052Z,17.30
2019-01-25T00:53:44.313Z,17.07
2019-01-25T00:56:12.534Z,17.17
2019-01-25T00:58:40.805Z,16.70
2019-01-25T01:01:09.095Z,18.10
2019-01-25T01:03:37.285Z,15.67
2019-01-25T01:06:05.669Z,17.60
2019-01-25T01:08:33.869Z,15.77
2019-01-25T01:11:02.330Z,16.87
2019-01-25T01:13:30.530Z,15.90
2019-01-25T01:15:58.829Z,18.10
2019-01-25T01:18:27.034Z,17.10
2019-01-25T01:20:55.310Z,17.50
2019-01-25T01:23:23.524Z,16.17
2019-01-25T01:25:51.721Z,16.50
2019-01-25T01:28:19.942Z,18.60
2019-01-25T01:30:48.213Z,17.50
2019-01-25T01:33:16.430Z,16.60
2019-01-25T01:35:44.625Z,17.90
2019-01-25T01:38:13.021Z,18.30
2019-01-25T01:40:41.353Z,19.27
2019-01-25T01:43:09.574Z,16.93
2019-01-25T01:45:37.851Z,20.00
2019-01-25T01:48:06.157Z,19.93
2019-01-25T01:50:34.361Z,21.63
2019-01-25T01:53:02.562Z,19.47
2019-01-25T01:55:30.779Z,20.73
2019-01-25T01:57:58.969Z,21.03
2019-01-25T02:00:27.461Z,19.87
2019-01-25T02:02:55.809Z,20.40
2019-01-25T02:05:24.171Z,20.53
2019-01-25T02:07:52.606Z,21.07
2019-01-25T02:10:29.038Z,19.37
2019-01-25T02:12:51.873Z,21.13
2019-01-25T02:15:20.862Z,20.57
2019-01-25T02:17:49.226Z,22.03
2019-01-25T02:20:18.957Z,20.40
2019-01-25T02:22:47.254Z,20.80
2019-01-25T02:25:15.697Z,23.50
2019-01-25T02:27:43.981Z,22.77
2019-01-25T02:30:13.749Z,20.17
2019-01-25T02:32:41.976Z,22.00
2019-01-25T02:35:10.328Z,21.00
2019-01-25T02:37:38.603Z,21.63
2019-01-25T02:40:08.405Z,23.00
2019-01-25T02:42:36.638Z,21.40
2019-01-25T02:45:06.670Z,22.20
2019-01-25T02:47:34.941Z,22.13
2019-01-25T02:50:04.438Z,21.63
2019-01-25T02:52:32.698Z,23.60
2019-01-25T02:55:00.996Z,22.00
2019-01-25T02:57:29.269Z,21.63
2019-01-25T02:59:57.485Z,24.07
2019-01-25T03:02:25.681Z,23.13
2019-01-25T03:04:53.975Z,21.20
2019-01-25T03:07:22.245Z,23.57
2019-01-25T03:09:50.541Z,22.63
2019-01-25T03:12:18.810Z,19.53
2019-01-25T03:14:47.105Z,21.10
2019-01-25T03:17:15.377Z,21.93
2019-01-25T03:19:43.637Z,23.27
2019-01-25T03:22:11.868Z,22.10
2019-01-25T03:24:40.125Z,22.50
2019-01-25T03:27:08.595Z,22.13
2019-01-25T03:29:36.864Z,23.03
2019-01-25T03:32:05.718Z,21.33
2019-01-25T03:34:33.994Z,22.53
2019-01-25T03:37:02.293Z,23.23
2019-01-25T03:39:30.499Z,22.03
2019-01-25T03:41:58.762Z,20.97
2019-01-25T03:44:26.988Z,23.93
2019-01-25T03:46:55.258Z,22.40
2019-01-25T03:49:23.549Z,22.80
2019-01-25T03:51:51.751Z,21.43
2019-01-25T03:54:20.034Z,21.27
2019-01-25T03:56:48.231Z,22.00
2019-01-25T03:59:16.519Z,21.77
2019-01-25T04:01:44.722Z,22.87
2019-01-25T04:04:13.014Z,22.47
2019-01-25T04:06:41.280Z,21.80
2019-01-25T04:09:09.548Z,21.07
2019-01-25T04:11:37.838Z,20.90
2019-01-25T04:14:06.110Z,22.27
2019-01-25T04:16:34.398Z,21.13
2019-01-25T04:19:02.598Z,20.77
2019-01-25T04:21:30.815Z,20.60
2019-01-25T04:23:59.087Z,20.80
2019-01-25T04:26:27.403Z,21.57
2019-01-25T04:28:56.831Z,20.00
2019-01-25T04:31:25.176Z,20.60
2019-01-25T04:33:53.397Z,20.17
2019-01-25T04:36:21.608Z,20.10
2019-01-25T04:38:49.891Z,20.00
2019-01-25T04:41:18.174Z,21.63
2019-01-25T04:43:46.445Z,20.40
2019-01-25T04:46:14.633Z,23.27
2019-01-25T04:48:42.856Z,21.20
2019-01-25T04:51:11.134Z,23.13
2019-01-25T04:53:39.354Z,23.47
2019-01-25T04:56:07.621Z,22.40
2019-01-25T04:58:35.863Z,24.33
2019-01-25T05:01:07.731Z,22.50
2019-01-25T05:03:35.998Z,22.87
2019-01-25T05:06:04.791Z,23.40
2019-01-25T05:08:33.057Z,21.77
2019-01-25T05:11:01.277Z,22.97
2019-01-25T05:13:29.543Z,21.70
2019-01-25T05:15:57.754Z,22.40
2019-01-25T05:18:25.945Z,22.90
2019-01-25T05:20:54.238Z,23.57
2019-01-25T05:23:22.429Z,23.03
2019-01-25T05:25:50.702Z,23.87
2019-01-25T05:28:18.923Z,21.80
2019-01-25T05:30:51.163Z,23.90
2019-01-25T05:33:19.447Z,23.30
2019-01-25T05:35:47.649Z,21.60
2019-01-25T05:38:15.862Z,22.93
2019-01-25T05:40:44.138Z,21.97
2019-01-25T05:43:12.358Z,22.47
2019-01-25T05:45:44.314Z,24.07
2019-01-25T05:48:12.538Z,24.27
2019-01-25T05:50:40.735Z,22.00
2019-01-25T05:53:09.045Z,23.60
2019-01-25T05:55:37.234Z,22.10
2019-01-25T05:58:06.599Z,23.00
2019-01-25T06:00:36.522Z,28.07
2019-01-25T06:03:05.762Z,24.03
2019-01-25T06:05:34.057Z,22.70
2019-01-25T06:08:03.790Z,28.17
2019-01-25T06:10:32.549Z,30.57
2019-01-25T06:13:00.745Z,29.77
2019-01-25T06:15:29.042Z,23.20
2019-01-25T06:17:59.214Z,25.87
2019-01-25T06:20:27.486Z,29.10
2019-01-25T06:22:55.969Z,25.10
2019-01-25T06:25:24.162Z,23.40
2019-01-25T06:27:52.381Z,24.63
2019-01-25T06:30:20.650Z,23.70
2019-01-25T06:32:48.946Z,24.57
2019-01-25T06:35:17.216Z,22.47
2019-01-25T06:37:45.505Z,24.87
2019-01-25T06:40:14.378Z,28.00
2019-01-25T06:42:42.598Z,26.50
2019-01-25T06:45:11.370Z,27.70
2019-01-25T06:47:39.707Z,25.20
2019-01-25T06:50:08.668Z,24.50
2019-01-25T06:52:36.857Z,26.00
2019-01-25T06:55:08.689Z,23.90
2019-01-25T06:57:47.674Z,23.87
2019-01-25T07:00:18.269Z,25.37
2019-01-25T07:02:46.465Z,26.50
2019-01-25T07:05:14.871Z,24.20
2019-01-25T07:07:44.457Z,24.53
2019-01-25T07:10:14.253Z,24.27
2019-01-25T07:12:42.510Z,24.93
2019-01-25T07:15:11.533Z,23.00
2019-01-25T07:17:39.726Z,25.83
2019-01-25T07:20:09.510Z,23.90
2019-01-25T07:22:37.774Z,24.57
2019-01-25T07:25:07.537Z,22.60
2019-01-25T07:27:35.763Z,23.63
2019-01-25T07:30:05.574Z,26.77
2019-01-25T07:32:33.859Z,25.17
2019-01-25T07:35:02.169Z,23.70
2019-01-25T07:37:30.433Z,26.50
2019-01-25T07:39:58.722Z,24.43
2019-01-25T07:42:27.232Z,25.40
2019-01-25T07:44:55.468Z,26.43
2019-01-25T07:47:23.748Z,26.33
2019-01-25T07:49:52.049Z,24.37
2019-01-25T07:52:20.305Z,24.80
2019-01-25T07:54:48.793Z,23.77
2019-01-25T07:57:17.074Z,25.20
2019-01-25T07:59:45.367Z,25.23
2019-01-25T08:02:13.644Z,25.13
2019-01-25T08:04:41.950Z,23.70
2019-01-25T08:07:10.143Z,24.53
2019-01-25T08:09:38.446Z,23.37
2019-01-25T08:12:07.542Z,22.10
2019-01-25T08:14:36.375Z,22.90
2019-01-25T08:17:04.738Z,22.90
2019-01-25T08:19:33.030Z,22.80
2019-01-25T08:22:01.312Z,24.50
2019-01-25T08:24:29.579Z,23.27
2019-01-25T08:26:57.871Z,22.80
2019-01-25T08:29:28.234Z,24.50
2019-01-25T08:31:56.099Z,22.73
2019-01-25T08:34:24.414Z,26.40
2019-01-25T08:36:52.674Z,24.20
2019-01-25T08:39:20.949Z,24.73
2019-01-25T08:41:49.229Z,23.40
2019-01-25T08:44:17.503Z,22.50
2019-01-25T08:46:45.786Z,22.10
2019-01-25T08:49:14.083Z,24.30
2019-01-25T08:51:42.373Z,21.00
2019-01-25T08:54:10.715Z,21.40
2019-01-25T08:56:39.026Z,22.90
2019-01-25T08:59:07.339Z,21.43
2019-01-25T09:01:35.673Z,21.80
2019-01-25T09:04:03.968Z,23.90
2019-01-25T09:06:32.238Z,21.93
2019-01-25T09:09:00.551Z,22.60
2019-01-25T09:11:28.813Z,23.30
2019-01-25T09:13:57.010Z,23.80
2019-01-25T09:16:25.297Z,20.70
2019-01-25T09:18:53.489Z,23.47
2019-01-25T09:21:21.719Z,26.07
2019-01-25T09:23:49.981Z,23.87
2019-01-25T09:26:18.202Z,26.03
2019-01-25T09:28:46.468Z,24.73
2019-01-25T09:31:14.686Z,25.20
2019-01-25T09:33:42.882Z,25.10
2019-01-25T09:36:11.117Z,25.10
2019-01-25T09:38:39.314Z,23.57
2019-01-25T09:41:07.509Z,24.97
2019-01-25T09:43:35.806Z,24.70
2019-01-25T09:46:04.075Z,24.27
2019-01-25T09:48:32.365Z,23.07
2019-01-25T09:51:00.636Z,24.60
2019-01-25T09:53:28.927Z,25.53
2019-01-25T09:55:57.177Z,24.37
2019-01-25T09:58:25.408Z,25.20
2019-01-25T10:00:55.205Z,25.50
2019-01-25T10:03:23.428Z,23.63
2019-01-25T10:05:51.696Z,23.77
2019-01-25T10:08:20.847Z,25.50
2019-01-25T10:10:49.113Z,24.03
2019-01-25T10:13:17.317Z,24.10
2019-01-25T10:15:45.534Z,25.20
2019-01-25T10:18:13.730Z,23.23
2019-01-25T10:20:42.030Z,25.83
2019-01-25T10:23:10.299Z,25.47
2019-01-25T10:25:38.522Z,23.90
2019-01-25T10:28:06.790Z,24.10
2019-01-25T10:30:35.149Z,24.90
2019-01-25T10:33:03.518Z,25.13
2019-01-25T10:35:31.806Z,26.13
2019-01-25T10:38:00.006Z,23.63
2019-01-25T10:40:28.302Z,23.77
2019-01-25T10:42:56.565Z,23.87
2019-01-25T10:45:29.103Z,19.30
2019-01-25T10:47:57.434Z,21.50
2019-01-25T10:50:25.625Z,20.97
2019-01-25T10:52:53.843Z,20.37
2019-01-25T10:55:22.161Z,21.17
2019-01-25T10:57:50.474Z,19.73
2019-01-25T11:00:20.449Z,20.47
2019-01-25T11:02:57.744Z,19.90
2019-01-25T11:05:22.570Z,19.90
2019-01-25T11:07:50.913Z,19.17
2019-01-25T11:10:20.332Z,20.83
2019-01-25T11:12:48.614Z,19.43
2019-01-25T11:15:23.429Z,21.20
2019-01-25T11:17:51.626Z,18.20
2019-01-25T11:20:20.890Z,18.30
2019-01-25T11:22:49.229Z,17.90
2019-01-25T11:25:19.086Z,16.23
2019-01-25T11:27:47.357Z,16.80
2019-01-25T11:30:16.450Z,16.77
2019-01-25T11:32:44.723Z,17.60
2019-01-25T11:35:13.010Z,16.33
2019-01-25T11:37:42.099Z,18.50
2019-01-25T11:40:14.997Z,20.70
2019-01-25T11:42:43.205Z,17.37
2019-01-25T11:45:11.891Z,17.63
2019-01-25T11:47:40.157Z,17.97
2019-01-25T11:50:12.822Z,21.73
2019-01-25T11:52:41.126Z,18.93
2019-01-25T11:55:09.790Z,19.77
2019-01-25T11:57:38.010Z,20.33
2019-01-25T12:00:10.783Z,19.50
2019-01-25T12:02:39.073Z,21.10
2019-01-25T12:05:08.730Z,22.03
2019-01-25T12:07:36.945Z,20.63
2019-01-25T12:10:06.677Z,19.27
2019-01-25T12:12:34.903Z,21.20
2019-01-25T12:15:03.246Z,21.17
2019-01-25T12:17:31.539Z,20.30
2019-01-25T12:19:59.801Z,19.63
2019-01-25T12:22:29.491Z,20.97
2019-01-25T12:24:57.858Z,18.70
2019-01-25T12:27:26.126Z,19.43
2019-01-25T12:29:54.430Z,21.07
2019-01-25T12:32:22.697Z,20.47
2019-01-25T12:34:50.914Z,20.30
2019-01-25T12:37:19.114Z,19.80
2019-01-25T12:39:47.399Z,21.50
2019-01-25T12:42:15.673Z,20.60
2019-01-25T12:44:43.955Z,22.43
2019-01-25T12:47:12.170Z,19.20
2019-01-25T12:49:40.438Z,18.47
2019-01-25T12:52:08.728Z,18.23
2019-01-25T12:54:37.002Z,17.77
2019-01-25T12:57:05.366Z,18.03
2019-01-25T12:59:33.629Z,17.33
2019-01-25T13:02:01.991Z,19.90
2019-01-25T13:04:30.254Z,19.40
2019-01-25T13:06:58.478Z,17.47
2019-01-25T13:09:26.741Z,17.97
2019-01-25T13:11:55.039Z,18.27
2019-01-25T13:14:23.573Z,20.23
2019-01-25T13:16:51.841Z,18.90
2019-01-25T13:19:20.063Z,17.77
2019-01-25T13:21:48.331Z,16.50
2019-01-25T13:24:16.549Z,16.37
2019-01-25T13:26:44.746Z,15.87
2019-01-25T13:29:13.047Z,17.20
2019-01-25T13:31:41.397Z,17.43
2019-01-25T13:34:09.674Z,15.23
2019-01-25T13:36:37.952Z,15.90
2019-01-25T13:39:07.290Z,15.07
2019-01-25T13:41:35.486Z,15.00
2019-01-25T13:44:03.837Z,14.83
2019-01-25T13:46:32.030Z,15.03
2019-01-25T13:49:00.286Z,14.33
2019-01-25T13:51:28.476Z,14.73
2019-01-25T13:53:56.743Z,16.40
2019-01-25T13:56:25.007Z,15.90
2019-01-25T13:58:53.299Z,14.97
2019-01-25T14:01:21.595Z,14.13
2019-01-25T14:03:49.861Z,13.53
2019-01-25T14:06:18.082Z,15.20
2019-01-25T14:08:46.765Z,15.20
2019-01-25T14:11:15.062Z,15.20
2019-01-25T14:13:46.926Z,13.83
2019-01-25T14:16:13.278Z,14.57
2019-01-25T14:18:44.866Z,13.90
2019-01-25T14:21:11.581Z,14.57
2019-01-25T14:23:39.851Z,14.70
2019-01-25T14:26:08.057Z,15.83
2019-01-25T14:28:36.273Z,16.30
2019-01-25T14:31:04.538Z,14.80
2019-01-25T14:33:32.757Z,15.90
2019-01-25T14:36:01.026Z,16.13
2019-01-25T14:38:29.249Z,14.67
2019-01-25T14:40:57.542Z,14.43
2019-01-25T14:43:25.828Z,15.23
2019-01-25T14:45:54.093Z,17.90
2019-01-25T14:48:22.386Z,17.50
2019-01-25T14:50:50.661Z,13.90
2019-01-25T14:53:18.873Z,15.03
2019-01-25T14:55:47.065Z,15.17
2019-01-25T14:58:15.262Z,14.00
2019-01-25T15:00:43.553Z,14.83
2019-01-25T15:03:11.826Z,15.63
2019-01-25T15:05:40.138Z,15.67
2019-01-25T15:08:08.482Z,16.60
2019-01-25T15:10:36.701Z,15.20
2019-01-25T15:13:05.232Z,15.27
2019-01-25T15:15:33.453Z,14.10
2019-01-25T15:18:01.653Z,14.30
2019-01-25T15:20:29.993Z,14.70
2019-01-25T15:22:58.362Z,15.33
2019-01-25T15:25:26.564Z,13.90
2019-01-25T15:27:54.790Z,13.90
2019-01-25T15:30:24.326Z,15.03
2019-01-25T15:32:52.618Z,12.87
2019-01-25T15:35:21.287Z,13.80
2019-01-25T15:37:49.582Z,13.30
2019-01-25T15:40:18.719Z,12.87
2019-01-25T15:42:47.077Z,13.30
2019-01-25T15:45:16.143Z,13.60
2019-01-25T15:47:44.616Z,13.60
2019-01-25T15:50:14.687Z,11.87
2019-01-25T15:52:42.943Z,13.20
2019-01-25T15:55:11.312Z,13.60
2019-01-25T15:57:40.548Z,14.20
2019-01-25T16:00:10.450Z,13.90
2019-01-25T16:02:39.037Z,14.10
2019-01-25T16:05:09.306Z,14.57
2019-01-25T16:07:38.648Z,13.80
2019-01-25T16:10:10.607Z,13.70
2019-01-25T16:12:39.974Z,14.70
2019-01-25T16:15:13.137Z,14.20
2019-01-25T16:17:43.125Z,12.93
2019-01-25T16:20:12.473Z,14.27
2019-01-25T16:22:40.751Z,14.63
2019-01-25T16:25:15.797Z,14.90
2019-01-25T16:27:44.071Z,15.30
2019-01-25T16:30:13.853Z,14.80
2019-01-25T16:32:43.688Z,15.13
2019-01-25T16:35:14.656Z,13.53
2019-01-25T16:37:44.321Z,14.93
2019-01-25T16:40:13.807Z,14.20
2019-01-25T16:42:42.419Z,15.30
2019-01-25T16:45:15.503Z,14.63
2019-01-25T16:47:43.978Z,12.93
2019-01-25T16:50:12.519Z,15.43
2019-01-25T16:52:41.614Z,14.63
2019-01-25T16:55:17.260Z,15.13
2019-01-25T16:57:45.818Z,13.17
2019-01-25T17:00:19.421Z,14.07
2019-01-25T17:02:47.714Z,14.20
2019-01-25T17:05:16.550Z,13.57
2019-01-25T17:07:44.845Z,13.47
2019-01-25T17:10:13.298Z,12.70
2019-01-25T17:12:41.565Z,11.90
2019-01-25T17:15:11.318Z,13.50
2019-01-25T17:17:39.509Z,14.20
2019-01-25T17:20:18.409Z,13.07
2019-01-25T17:22:41.774Z,14.10
2019-01-25T17:25:12.407Z,13.30
2019-01-25T17:27:41.003Z,12.30
2019-01-25T17:30:18.042Z,13.40
2019-01-25T17:32:47.257Z,12.90
2019-01-25T17:35:15.628Z,13.43
2019-01-25T17:37:45.224Z,13.33
2019-01-25T17:40:14.585Z,12.47
2019-01-25T17:42:42.787Z,13.43
2019-01-25T17:45:11.478Z,11.27
2019-01-25T17:47:40.316Z,12.40
2019-01-25T17:50:10.191Z,11.63
2019-01-25T17:52:40.010Z,12.33
2019-01-25T17:55:11.998Z,13.83
2019-01-25T17:57:41.838Z,12.03
2019-01-25T18:00:15.065Z,12.23
2019-01-25T18:02:43.278Z,11.60
2019-01-25T18:05:11.480Z,12.03
2019-01-25T18:07:41.925Z,11.30
2019-01-25T18:10:11.975Z,11.67
2019-01-25T18:12:40.985Z,9.87
2019-01-25T18:15:10.709Z,9.80
2019-01-25T18:17:39.489Z,11.20
2019-01-25T18:20:09.421Z,10.10
2019-01-25T18:22:37.906Z,10.20
2019-01-25T18:25:07.978Z,10.40
2019-01-25T18:27:36.447Z,9.87
2019-01-25T18:30:10.395Z,8.93
2019-01-25T18:32:38.870Z,9.97
2019-01-25T18:35:07.398Z,10.57
2019-01-25T18:37:37.562Z,9.37
2019-01-25T18:40:07.493Z,8.73
2019-01-25T18:42:35.753Z,7.07
2019-01-25T18:45:05.346Z,6.83
2019-01-25T18:47:33.617Z,8.23
2019-01-25T18:50:03.416Z,8.70
2019-01-25T18:52:32.966Z,8.20
2019-01-25T18:55:01.641Z,7.20
2019-01-25T18:57:29.846Z,7.00
2019-01-25T18:59:59.897Z,8.53
2019-01-25T19:02:28.104Z,7.10
2019-01-25T19:04:58.722Z,7.17
2019-01-25T19:07:27.341Z,8.83
2019-01-25T19:09:55.543Z,8.83
2019-01-25T19:12:25.384Z,7.90
2019-01-25T19:14:53.662Z,7.70
2019-01-25T19:17:24.505Z,7.93
2019-01-25T19:19:52.710Z,7.53
2019-01-25T19:22:21.239Z,8.13
2019-01-25T19:24:51.404Z,8.30
2019-01-25T19:27:22.980Z,9.07
2019-01-25T19:29:53.782Z,9.30
2019-01-25T19:32:26.585Z,9.00
2019-01-25T19:34:55.139Z,10.67
2019-01-25T19:37:23.667Z,8.57
2019-01-25T19:39:54.490Z,9.00
2019-01-25T19:42:24.417Z,10.13
2019-01-25T19:44:53.875Z,11.80
2019-01-25T19:47:22.145Z,9.57
2019-01-25T19:49:51.612Z,9.57
2019-01-25T19:52:19.842Z,10.73
2019-01-25T19:54:48.129Z,9.77
2019-01-25T19:57:16.894Z,9.03
2019-01-25T19:59:45.103Z,10.10
2019-01-25T20:02:15.286Z,9.40
2019-01-25T20:04:43.918Z,9.40
2019-01-25T20:07:12.546Z,10.30
2019-01-25T20:09:40.894Z,9.53
2019-01-25T20:12:10.273Z,10.10
2019-01-25T20:14:40.078Z,8.23
2019-01-25T20:17:10.159Z,10.27
2019-01-25T20:19:38.358Z,8.50
2019-01-25T20:22:06.880Z,8.90
2019-01-25T20:24:36.351Z,8.20
2019-01-25T20:27:05.854Z,8.50
2019-01-25T20:29:35.968Z,9.33
2019-01-25T20:32:07.967Z,8.90
2019-01-25T20:34:37.817Z,9.43
2019-01-25T20:37:07.621Z,8.90
2019-01-25T20:39:36.174Z,12.70
2019-01-25T20:42:05.704Z,9.63
2019-01-25T20:44:33.994Z,11.00
2019-01-25T20:47:05.969Z,8.17
2019-01-25T20:49:34.540Z,8.77
2019-01-25T20:52:03.082Z,8.93
2019-01-25T20:54:33.087Z,8.57
2019-01-25T20:57:01.290Z,8.60
2019-01-25T20:59:30.874Z,8.40
2019-01-25T21:02:01.018Z,7.50
2019-01-25T21:04:29.486Z,7.27
2019-01-25T21:06:58.231Z,6.63
2019-01-25T21:09:26.834Z,7.73
2019-01-25T21:11:57.034Z,6.40
2019-01-25T21:14:26.643Z,7.80
2019-01-25T21:16:56.585Z,7.33
2019-01-25T21:19:25.752Z,6.67
2019-01-25T21:21:54.950Z,6.80
2019-01-25T21:24:23.473Z,8.30
2019-01-25T21:26:53.451Z,6.30
2019-01-25T21:29:24.281Z,9.27
2019-01-25T21:31:55.091Z,7.70
2019-01-25T21:34:26.150Z,7.83
2019-01-25T21:36:54.386Z,8.53
2019-01-25T21:39:23.608Z,7.37
2019-01-25T21:41:53.558Z,7.40
2019-01-25T21:44:22.746Z,8.37
2019-01-25T21:46:50.934Z,7.50
2019-01-25T21:49:23.823Z,7.77
2019-01-25T21:51:53.878Z,10.50
2019-01-25T21:54:23.902Z,8.10
2019-01-25T21:56:53.879Z,7.43
2019-01-25T21:59:25.031Z,9.10
2019-01-25T22:01:55.941Z,8.33
2019-01-25T22:04:26.366Z,7.37
2019-01-25T22:06:55.961Z,7.70
2019-01-25T22:09:25.717Z,7.53
2019-01-25T22:11:55.878Z,7.33
2019-01-25T22:14:24.154Z,7.47
2019-01-25T22:16:53.911Z,7.97
2019-01-25T22:19:25.310Z,7.43
2019-01-25T22:21:55.090Z,7.70
2019-01-25T22:24:25.617Z,7.87
2019-01-25T22:26:55.247Z,7.70
2019-01-25T22:29:23.694Z,7.73
2019-01-25T22:31:51.985Z,7.40
2019-01-25T22:34:20.243Z,7.10
2019-01-25T22:36:49.305Z,6.20
2019-01-25T22:39:17.588Z,6.47
2019-01-25T22:41:46.650Z,6.43
2019-01-25T22:44:15.986Z,6.77
2019-01-25T22:46:44.252Z,6.60
2019-01-25T22:49:12.725Z,6.87
2019-01-25T22:51:42.782Z,6.43
2019-01-25T22:54:12.317Z,6.10
2019-01-25T22:56:41.069Z,7.07
2019-01-25T22:59:11.608Z,6.50
2019-01-25T23:01:40.178Z,7.10
2019-01-25T23:04:16.009Z,6.50
2019-01-25T23:06:46.874Z,5.10
2019-01-25T23:09:16.738Z,6.10
2019-01-25T23:11:46.546Z,5.63
2019-01-25T23:14:15.098Z,5.60
2019-01-25T23:16:43.627Z,5.57
2019-01-25T23:19:13.626Z,5.37
2019-01-25T23:21:41.891Z,6.40
2019-01-25T23:24:10.410Z,5.20
2019-01-25T23:26:41.306Z,6.23
2019-01-25T23:29:10.902Z,5.87
2019-01-25T23:31:42.074Z,6.77
2019-01-25T23:34:10.577Z,6.60
2019-01-25T23:36:40.148Z,4.57
2019-01-25T23:39:09.582Z,5.70
2019-01-25T23:41:39.761Z,5.90
2019-01-25T23:44:09.469Z,5.63
2019-01-25T23:46:41.650Z,6.10
2019-01-25T23:49:11.794Z,5.50
2019-01-25T23:51:43.481Z,6.07
2019-01-25T23:54:13.311Z,5.20
2019-01-25T23:56:41.842Z,5.53
2019-01-25T23:59:10.542Z,5.27
